sensor_id;sensor_type;location;lat;lon;timestamp;pressure;altitude;pressure_sealevel;temperature;humidity
13867;BME280;7003;46.982;15.248;2023-06-10T00:02:22;96798.72;;;14.67;100.00
13867;BME280;7003;46.982;15.248;2023-06-10T00:04:51;96802.28;;;14.75;100.00
13867;BME280;7003;46.982;15.248;2023-06-10T00:07:20;96805.66;;;14.72;100.00
13867;BME280;7003;46.982;15.248;2023-06-10T00:09:50;96799.59;;;14.75;100.00
13867;BME280;7003;46.982;15.248;2023-06-10T00:12:17;96800.25;;;14.68;100.00
13867;BME280;7003;46.982;15.248;2023-06-10T00:14:48;96795.94;;;14.60;100.00
13867;BME280;7003;46.982;15.248;2023-06-10T00:17:15;96802.22;;;14.48;100.00
13867;BME280;7003;46.982;15.248;2023-06-10T00:19:43;96796.09;;;14.71;100.00
13867;BME280;7003;46.982;15.248;2023-06-10T00:22:16;96795.09;;;14.56;100.00
13867;BME280;7003;46.982;15.248;2023-06-10T00:24:43;96790.88;;;14.55;100.00
13867;BME280;7003;46.982;15.248;2023-06-10T00:27:12;96797.47;;;14.61;100.00
13867;BME280;7003;46.982;15.248;2023-06-10T00:29:39;96792.94;;;14.65;100.00
13867;BME280;7003;46.982;15.248;2023-06-10T00:32:09;96787.94;;;14.63;100.00
13867;BME280;7003;46.982;15.248;2023-06-10T00:34:38;96794.38;;;14.59;100.00
13867;BME280;7003;46.982;15.248;2023-06-10T00:37:05;96798.91;;;14.32;100.00
13867;BME280;7003;46.982;15.248;2023-06-10T00:39:34;96787.44;;;14.32;100.00
13867;BME280;7003;46.982;15.248;2023-06-10T00:42:01;96788.44;;;14.01;100.00
13867;BME280;7003;46.982;15.248;2023-06-10T00:44:34;96783.44;;;13.99;100.00
13867;BME280;7003;46.982;15.248;2023-06-10T00:47:05;96794.28;;;14.10;100.00
13867;BME280;7003;46.982;15.248;2023-06-10T00:49:33;96789.38;;;14.12;100.00
13867;BME280;7003;46.982;15.248;2023-06-10T00:52:00;96788.66;;;14.15;100.00
13867;BME280;7003;46.982;15.248;2023-06-10T00:54:28;96790.56;;;14.14;100.00
13867;BME280;7003;46.982;15.248;2023-06-10T00:57:00;96786.00;;;14.38;100.00
13867;BME280;7003;46.982;15.248;2023-06-10T00:59:30;96784.22;;;14.22;100.00
13867;BME280;7003;46.982;15.248;2023-06-10T01:02:00;96775.75;;;14.20;100.00
13867;BME280;7003;46.982;15.248;2023-06-10T01:04:28;96778.88;;;14.22;100.00
13867;BME280;7003;46.982;15.248;2023-06-10T01:07:03;96777.06;;;14.07;100.00
13867;BME280;7003;46.982;15.248;2023-06-10T01:09:38;96788.47;;;14.04;100.00
13867;BME280;7003;46.982;15.248;2023-06-10T01:12:14;96789.19;;;14.01;100.00
13867;BME280;7003;46.982;15.248;2023-06-10T01:14:43;96788.91;;;13.87;100.00
13867;BME280;7003;46.982;15.248;2023-06-10T01:17:12;96785.50;;;13.67;100.00
13867;BME280;7003;46.982;15.248;2023-06-10T01:19:42;96779.38;;;13.67;100.00
13867;BME280;7003;46.982;15.248;2023-06-10T01:22:13;96784.44;;;13.72;100.00
13867;BME280;7003;46.982;15.248;2023-06-10T01:24:41;96790.22;;;13.74;100.00
13867;BME280;7003;46.982;15.248;2023-06-10T01:27:12;96784.16;;;13.77;100.00
13867;BME280;7003;46.982;15.248;2023-06-10T01:29:46;96790.91;;;13.90;100.00
13867;BME280;7003;46.982;15.248;2023-06-10T01:32:18;96789.03;;;13.94;100.00
13867;BME280;7003;46.982;15.248;2023-06-10T01:34:48;96795.94;;;13.95;100.00
13867;BME280;7003;46.982;15.248;2023-06-10T01:37:19;96787.09;;;13.91;100.00
13867;BME280;7003;46.982;15.248;2023-06-10T01:39:48;96789.78;;;13.91;100.00
13867;BME280;7003;46.982;15.248;2023-06-10T01:42:18;96792.03;;;13.89;100.00
13867;BME280;7003;46.982;15.248;2023-06-10T01:44:48;96790.41;;;13.84;100.00
13867;BME280;7003;46.982;15.248;2023-06-10T01:47:22;96788.53;;;13.85;100.00
13867;BME280;7003;46.982;15.248;2023-06-10T01:49:50;96798.06;;;13.86;100.00
13867;BME280;7003;46.982;15.248;2023-06-10T01:52:18;96789.69;;;13.87;100.00
13867;BME280;7003;46.982;15.248;2023-06-10T01:54:48;96793.34;;;13.99;100.00
13867;BME280;7003;46.982;15.248;2023-06-10T01:57:15;96796.03;;;13.79;100.00
13867;BME280;7003;46.982;15.248;2023-06-10T01:59:46;96797.81;;;13.72;100.00
13867;BME280;7003;46.982;15.248;2023-06-10T02:02:13;96793.31;;;13.57;100.00
13867;BME280;7003;46.982;15.248;2023-06-10T02:04:43;96792.06;;;13.51;100.00
13867;BME280;7003;46.982;15.248;2023-06-10T02:07:10;96801.69;;;13.36;100.00
13867;BME280;7003;46.982;15.248;2023-06-10T02:09:39;96803.03;;;13.45;100.00
13867;BME280;7003;46.982;15.248;2023-06-10T02:12:09;96801.25;;;13.34;100.00
13867;BME280;7003;46.982;15.248;2023-06-10T02:14:39;96809.34;;;13.37;100.00
13867;BME280;7003;46.982;15.248;2023-06-10T02:17:07;96797.13;;;13.36;100.00
13867;BME280;7003;46.982;15.248;2023-06-10T02:19:41;96804.16;;;13.44;100.00
13867;BME280;7003;46.982;15.248;2023-06-10T02:22:10;96795.06;;;13.49;100.00
13867;BME280;7003;46.982;15.248;2023-06-10T02:24:41;96798.81;;;13.44;100.00
13867;BME280;7003;46.982;15.248;2023-06-10T02:27:08;96800.00;;;13.47;100.00
13867;BME280;7003;46.982;15.248;2023-06-10T02:29:38;96804.97;;;13.48;100.00
13867;BME280;7003;46.982;15.248;2023-06-10T02:32:07;96806.09;;;13.47;100.00
13867;BME280;7003;46.982;15.248;2023-06-10T02:34:36;96801.78;;;13.39;100.00
13867;BME280;7003;46.982;15.248;2023-06-10T02:37:04;96801.19;;;13.30;100.00
13867;BME280;7003;46.982;15.248;2023-06-10T02:39:31;96802.03;;;13.34;100.00
13867;BME280;7003;46.982;15.248;2023-06-10T02:42:03;96796.69;;;13.34;100.00
13867;BME280;7003;46.982;15.248;2023-06-10T02:44:33;96796.53;;;13.27;100.00
13867;BME280;7003;46.982;15.248;2023-06-10T02:47:03;96798.78;;;13.25;100.00
13867;BME280;7003;46.982;15.248;2023-06-10T02:49:31;96799.84;;;13.40;100.00
13867;BME280;7003;46.982;15.248;2023-06-10T02:52:01;96800.22;;;13.38;100.00
13867;BME280;7003;46.982;15.248;2023-06-10T02:54:29;96808.09;;;13.31;100.00
13867;BME280;7003;46.982;15.248;2023-06-10T02:56:56;96810.31;;;13.29;100.00
13867;BME280;7003;46.982;15.248;2023-06-10T02:59:25;96812.72;;;13.34;100.00
13867;BME280;7003;46.982;15.248;2023-06-10T03:01:52;96817.03;;;13.39;100.00
13867;BME280;7003;46.982;15.248;2023-06-10T03:04:20;96823.25;;;13.27;100.00
13867;BME280;7003;46.982;15.248;2023-06-10T03:06:49;96823.53;;;13.22;100.00
13867;BME280;7003;46.982;15.248;2023-06-10T03:09:19;96827.22;;;13.18;100.00
13867;BME280;7003;46.982;15.248;2023-06-10T03:11:46;96826.91;;;13.19;100.00
13867;BME280;7003;46.982;15.248;2023-06-10T03:14:16;96832.72;;;13.25;100.00
13867;BME280;7003;46.982;15.248;2023-06-10T03:16:47;96835.78;;;13.23;100.00
13867;BME280;7003;46.982;15.248;2023-06-10T03:19:18;96836.53;;;13.24;100.00
13867;BME280;7003;46.982;15.248;2023-06-10T03:22:08;96838.78;;;13.22;100.00
13867;BME280;7003;46.982;15.248;2023-06-10T03:24:36;96839.56;;;13.22;100.00
13867;BME280;7003;46.982;15.248;2023-06-10T03:27:07;96842.63;;;13.24;100.00
13867;BME280;7003;46.982;15.248;2023-06-10T03:29:38;96843.41;;;13.25;100.00
13867;BME280;7003;46.982;15.248;2023-06-10T03:32:09;96846.50;;;13.27;100.00
13867;BME280;7003;46.982;15.248;2023-06-10T03:34:37;96848.06;;;13.28;100.00
13867;BME280;7003;46.982;15.248;2023-06-10T03:37:08;96852.63;;;13.27;100.00
13867;BME280;7003;46.982;15.248;2023-06-10T03:39:38;96856.53;;;13.14;100.00
13867;BME280;7003;46.982;15.248;2023-06-10T03:42:08;96854.53;;;13.11;100.00
13867;BME280;7003;46.982;15.248;2023-06-10T03:44:38;96859.03;;;13.07;100.00
13867;BME280;7003;46.982;15.248;2023-06-10T03:47:06;96856.44;;;13.10;100.00
13867;BME280;7003;46.982;15.248;2023-06-10T03:49:38;96849.66;;;13.13;100.00
13867;BME280;7003;46.982;15.248;2023-06-10T03:52:09;96851.97;;;13.15;100.00
13867;BME280;7003;46.982;15.248;2023-06-10T03:54:36;96856.97;;;13.16;100.00
13867;BME280;7003;46.982;15.248;2023-06-10T03:57:04;96855.66;;;13.10;100.00
13867;BME280;7003;46.982;15.248;2023-06-10T03:59:31;96851.84;;;13.27;100.00
13867;BME280;7003;46.982;15.248;2023-06-10T04:01:59;96853.84;;;13.30;100.00
13867;BME280;7003;46.982;15.248;2023-06-10T04:04:27;96861.75;;;13.26;100.00
13867;BME280;7003;46.982;15.248;2023-06-10T04:07:00;96857.81;;;13.20;100.00
13867;BME280;7003;46.982;15.248;2023-06-10T04:09:30;96862.47;;;13.23;100.00
13867;BME280;7003;46.982;15.248;2023-06-10T04:11:58;96859.97;;;13.30;100.00
13867;BME280;7003;46.982;15.248;2023-06-10T04:14:25;96859.66;;;13.16;100.00
13867;BME280;7003;46.982;15.248;2023-06-10T04:16:53;96868.00;;;12.99;100.00
13867;BME280;7003;46.982;15.248;2023-06-10T04:19:20;96878.56;;;13.11;100.00
13867;BME280;7003;46.982;15.248;2023-06-10T04:21:48;96873.00;;;13.16;100.00
13867;BME280;7003;46.982;15.248;2023-06-10T04:24:17;96860.16;;;13.22;100.00
13867;BME280;7003;46.982;15.248;2023-06-10T04:26:44;96867.09;;;13.26;100.00
13867;BME280;7003;46.982;15.248;2023-06-10T04:29:14;96871.75;;;13.29;100.00
13867;BME280;7003;46.982;15.248;2023-06-10T04:31:44;96862.03;;;13.21;100.00
13867;BME280;7003;46.982;15.248;2023-06-10T04:34:15;96869.28;;;13.21;100.00
13867;BME280;7003;46.982;15.248;2023-06-10T04:36:42;96875.13;;;13.26;100.00
13867;BME280;7003;46.982;15.248;2023-06-10T04:39:10;96870.50;;;13.23;100.00
13867;BME280;7003;46.982;15.248;2023-06-10T04:41:39;96877.44;;;13.28;100.00
13867;BME280;7003;46.982;15.248;2023-06-10T04:44:07;96875.03;;;13.38;100.00
13867;BME280;7003;46.982;15.248;2023-06-10T04:46:34;96885.22;;;13.52;100.00
13867;BME280;7003;46.982;15.248;2023-06-10T04:49:07;96882.16;;;13.69;100.00
13867;BME280;7003;46.982;15.248;2023-06-10T04:51:35;96883.91;;;13.81;100.00
13867;BME280;7003;46.982;15.248;2023-06-10T04:54:06;96890.72;;;13.78;100.00
13867;BME280;7003;46.982;15.248;2023-06-10T04:56:34;96878.06;;;13.95;100.00
13867;BME280;7003;46.982;15.248;2023-06-10T04:59:04;96881.25;;;14.00;100.00
13867;BME280;7003;46.982;15.248;2023-06-10T05:01:32;96878.56;;;14.00;100.00
13867;BME280;7003;46.982;15.248;2023-06-10T05:04:01;96885.88;;;13.84;100.00
13867;BME280;7003;46.982;15.248;2023-06-10T05:06:33;96870.97;;;14.25;100.00
13867;BME280;7003;46.982;15.248;2023-06-10T05:09:04;96880.03;;;14.59;100.00
13867;BME280;7003;46.982;15.248;2023-06-10T05:11:32;96885.22;;;14.94;100.00
13867;BME280;7003;46.982;15.248;2023-06-10T05:14:04;96871.78;;;15.17;100.00
13867;BME280;7003;46.982;15.248;2023-06-10T05:16:31;96873.28;;;15.70;100.00
13867;BME280;7003;46.982;15.248;2023-06-10T05:18:59;96875.19;;;16.03;100.00
13867;BME280;7003;46.982;15.248;2023-06-10T05:21:26;96875.25;;;16.44;100.00
13867;BME280;7003;46.982;15.248;2023-06-10T05:23:54;96867.19;;;16.84;100.00
13867;BME280;7003;46.982;15.248;2023-06-10T05:26:24;96876.91;;;17.00;100.00
13867;BME280;7003;46.982;15.248;2023-06-10T05:28:54;96878.50;;;17.11;100.00
13867;BME280;7003;46.982;15.248;2023-06-10T05:31:24;96877.28;;;16.98;100.00
13867;BME280;7003;46.982;15.248;2023-06-10T05:33:51;96883.47;;;17.06;100.00
13867;BME280;7003;46.982;15.248;2023-06-10T05:36:21;96880.72;;;16.99;100.00
13867;BME280;7003;46.982;15.248;2023-06-10T05:38:54;96877.94;;;16.84;100.00
13867;BME280;7003;46.982;15.248;2023-06-10T05:41:21;96887.81;;;16.73;100.00
13867;BME280;7003;46.982;15.248;2023-06-10T05:43:49;96885.28;;;16.50;100.00
13867;BME280;7003;46.982;15.248;2023-06-10T05:46:20;96886.25;;;16.32;100.00
13867;BME280;7003;46.982;15.248;2023-06-10T05:48:49;96880.19;;;16.01;100.00
13867;BME280;7003;46.982;15.248;2023-06-10T05:51:17;96878.06;;;16.21;100.00
13867;BME280;7003;46.982;15.248;2023-06-10T05:53:46;96880.53;;;16.33;100.00
13867;BME280;7003;46.982;15.248;2023-06-10T05:56:16;96879.75;;;16.33;100.00
13867;BME280;7003;46.982;15.248;2023-06-10T05:58:43;96881.66;;;16.32;100.00
13867;BME280;7003;46.982;15.248;2023-06-10T06:01:14;96886.69;;;16.37;100.00
13867;BME280;7003;46.982;15.248;2023-06-10T06:03:42;96888.25;;;16.42;100.00
13867;BME280;7003;46.982;15.248;2023-06-10T06:06:10;96885.97;;;16.44;100.00
13867;BME280;7003;46.982;15.248;2023-06-10T06:08:38;96888.63;;;16.40;100.00
13867;BME280;7003;46.982;15.248;2023-06-10T06:11:08;96888.47;;;16.26;100.00
13867;BME280;7003;46.982;15.248;2023-06-10T06:13:35;96888.97;;;16.35;100.00
13867;BME280;7003;46.982;15.248;2023-06-10T06:16:05;96889.13;;;16.53;100.00
13867;BME280;7003;46.982;15.248;2023-06-10T06:18:36;96887.75;;;16.66;100.00
13867;BME280;7003;46.982;15.248;2023-06-10T06:21:03;96892.03;;;16.71;100.00
13867;BME280;7003;46.982;15.248;2023-06-10T06:23:34;96893.56;;;16.72;100.00
13867;BME280;7003;46.982;15.248;2023-06-10T06:26:01;96897.03;;;16.72;100.00
13867;BME280;7003;46.982;15.248;2023-06-10T06:28:29;96897.69;;;16.62;100.00
13867;BME280;7003;46.982;15.248;2023-06-10T06:31:00;96895.03;;;16.66;100.00
13867;BME280;7003;46.982;15.248;2023-06-10T06:33:27;96898.47;;;16.63;100.00
13867;BME280;7003;46.982;15.248;2023-06-10T06:35:55;96900.88;;;16.75;100.00
13867;BME280;7003;46.982;15.248;2023-06-10T06:38:22;96899.38;;;16.81;100.00
13867;BME280;7003;46.982;15.248;2023-06-10T06:40:54;96902.41;;;16.76;100.00
13867;BME280;7003;46.982;15.248;2023-06-10T06:43:22;96902.00;;;16.70;100.00
13867;BME280;7003;46.982;15.248;2023-06-10T06:45:49;96903.25;;;16.80;100.00
13867;BME280;7003;46.982;15.248;2023-06-10T06:48:19;96899.53;;;16.99;100.00
13867;BME280;7003;46.982;15.248;2023-06-10T06:50:46;96896.91;;;17.06;100.00
13867;BME280;7003;46.982;15.248;2023-06-10T06:53:17;96902.72;;;17.15;100.00
13867;BME280;7003;46.982;15.248;2023-06-10T06:55:44;96895.94;;;17.31;100.00
13867;BME280;7003;46.982;15.248;2023-06-10T06:58:14;96900.34;;;17.57;100.00
13867;BME280;7003;46.982;15.248;2023-06-10T07:00:41;96901.25;;;17.79;100.00
13867;BME280;7003;46.982;15.248;2023-06-10T07:03:11;96901.25;;;17.83;100.00
13867;BME280;7003;46.982;15.248;2023-06-10T07:05:38;96893.91;;;17.73;100.00
13867;BME280;7003;46.982;15.248;2023-06-10T07:08:08;96893.84;;;17.65;100.00
13867;BME280;7003;46.982;15.248;2023-06-10T07:10:35;96892.41;;;17.82;100.00
13867;BME280;7003;46.982;15.248;2023-06-10T07:13:02;96883.91;;;17.77;100.00
13867;BME280;7003;46.982;15.248;2023-06-10T07:15:34;96893.53;;;17.81;100.00
13867;BME280;7003;46.982;15.248;2023-06-10T07:18:01;96892.44;;;17.93;100.00
13867;BME280;7003;46.982;15.248;2023-06-10T07:20:31;96887.13;;;18.11;100.00
13867;BME280;7003;46.982;15.248;2023-06-10T07:22:58;96882.56;;;18.36;100.00
13867;BME280;7003;46.982;15.248;2023-06-10T07:25:26;96883.34;;;18.43;100.00
13867;BME280;7003;46.982;15.248;2023-06-10T07:27:53;96880.28;;;18.45;100.00
13867;BME280;7003;46.982;15.248;2023-06-10T07:30:24;96881.88;;;18.67;100.00
13867;BME280;7003;46.982;15.248;2023-06-10T07:32:53;96874.16;;;18.48;100.00
13867;BME280;7003;46.982;15.248;2023-06-10T07:35:23;96879.53;;;18.52;100.00
13867;BME280;7003;46.982;15.248;2023-06-10T07:37:51;96880.75;;;18.86;100.00
13867;BME280;7003;46.982;15.248;2023-06-10T07:40:18;96876.88;;;18.98;100.00
13867;BME280;7003;46.982;15.248;2023-06-10T07:42:48;96885.72;;;18.59;100.00
13867;BME280;7003;46.982;15.248;2023-06-10T07:45:16;96891.16;;;18.95;100.00
13867;BME280;7003;46.982;15.248;2023-06-10T07:47:43;96886.84;;;19.36;100.00
13867;BME280;7003;46.982;15.248;2023-06-10T07:50:14;96891.84;;;19.63;100.00
13867;BME280;7003;46.982;15.248;2023-06-10T07:52:45;96885.59;;;19.87;100.00
13867;BME280;7003;46.982;15.248;2023-06-10T07:55:13;96896.34;;;20.05;100.00
13867;BME280;7003;46.982;15.248;2023-06-10T07:57:40;96888.56;;;20.17;100.00
13867;BME280;7003;46.982;15.248;2023-06-10T08:00:11;96878.44;;;20.39;100.00
13867;BME280;7003;46.982;15.248;2023-06-10T08:02:41;96882.28;;;20.42;100.00
13867;BME280;7003;46.982;15.248;2023-06-10T08:05:09;96881.47;;;20.52;100.00
13867;BME280;7003;46.982;15.248;2023-06-10T08:07:40;96876.78;;;20.56;100.00
13867;BME280;7003;46.982;15.248;2023-06-10T08:10:08;96885.50;;;20.81;100.00
13867;BME280;7003;46.982;15.248;2023-06-10T08:12:38;96882.69;;;20.95;100.00
13867;BME280;7003;46.982;15.248;2023-06-10T08:15:08;96882.50;;;21.20;100.00
13867;BME280;7003;46.982;15.248;2023-06-10T08:17:37;96887.41;;;21.32;100.00
13867;BME280;7003;46.982;15.248;2023-06-10T08:20:05;96883.78;;;21.46;100.00
13867;BME280;7003;46.982;15.248;2023-06-10T08:22:36;96880.66;;;21.51;100.00
13867;BME280;7003;46.982;15.248;2023-06-10T08:25:06;96888.41;;;21.49;100.00
13867;BME280;7003;46.982;15.248;2023-06-10T08:27:33;96887.16;;;21.57;100.00
13867;BME280;7003;46.982;15.248;2023-06-10T08:30:04;96891.47;;;21.51;100.00
13867;BME280;7003;46.982;15.248;2023-06-10T08:32:32;96892.19;;;21.55;100.00
13867;BME280;7003;46.982;15.248;2023-06-10T08:34:59;96889.09;;;21.57;100.00
13867;BME280;7003;46.982;15.248;2023-06-10T08:37:29;96890.47;;;21.72;100.00
13867;BME280;7003;46.982;15.248;2023-06-10T08:39:59;96888.78;;;21.85;100.00
13867;BME280;7003;46.982;15.248;2023-06-10T08:42:33;96889.44;;;21.96;100.00
13867;BME280;7003;46.982;15.248;2023-06-10T08:45:04;96888.28;;;21.97;100.00
13867;BME280;7003;46.982;15.248;2023-06-10T08:47:35;96887.44;;;22.04;100.00
13867;BME280;7003;46.982;15.248;2023-06-10T08:50:08;96886.34;;;21.98;100.00
13867;BME280;7003;46.982;15.248;2023-06-10T08:52:38;96883.16;;;22.06;100.00
13867;BME280;7003;46.982;15.248;2023-06-10T08:55:11;96884.59;;;21.80;100.00
13867;BME280;7003;46.982;15.248;2023-06-10T08:57:41;96891.16;;;21.79;100.00
13867;BME280;7003;46.982;15.248;2023-06-10T09:00:12;96880.72;;;21.81;100.00
13867;BME280;7003;46.982;15.248;2023-06-10T09:02:43;96891.91;;;22.17;100.00
13867;BME280;7003;46.982;15.248;2023-06-10T09:05:13;96884.63;;;22.11;100.00
13867;BME280;7003;46.982;15.248;2023-06-10T09:07:41;96879.56;;;22.43;100.00
13867;BME280;7003;46.982;15.248;2023-06-10T09:10:11;96880.06;;;22.61;100.00
13867;BME280;7003;46.982;15.248;2023-06-10T09:12:40;96887.19;;;22.79;100.00
13867;BME280;7003;46.982;15.248;2023-06-10T09:15:08;96877.97;;;22.99;100.00
13867;BME280;7003;46.982;15.248;2023-06-10T09:17:37;96882.13;;;23.04;100.00
13867;BME280;7003;46.982;15.248;2023-06-10T09:20:07;96870.69;;;23.16;100.00
13867;BME280;7003;46.982;15.248;2023-06-10T09:22:35;96872.94;;;23.21;100.00
13867;BME280;7003;46.982;15.248;2023-06-10T09:25:06;96872.03;;;23.28;100.00
13867;BME280;7003;46.982;15.248;2023-06-10T09:27:44;96878.88;;;22.36;100.00
13867;BME280;7003;46.982;15.248;2023-06-10T09:30:24;96875.84;;;22.30;100.00
13867;BME280;7003;46.982;15.248;2023-06-10T09:32:53;96868.53;;;22.54;100.00
13867;BME280;7003;46.982;15.248;2023-06-10T09:35:22;96878.38;;;22.71;100.00
13867;BME280;7003;46.982;15.248;2023-06-10T09:37:51;96870.50;;;22.80;100.00
13867;BME280;7003;46.982;15.248;2023-06-10T09:40:22;96861.19;;;23.28;100.00
13867;BME280;7003;46.982;15.248;2023-06-10T09:42:54;96868.66;;;23.44;100.00
13867;BME280;7003;46.982;15.248;2023-06-10T09:45:29;96870.47;;;23.73;100.00
13867;BME280;7003;46.982;15.248;2023-06-10T09:48:00;96867.88;;;23.86;100.00
13867;BME280;7003;46.982;15.248;2023-06-10T09:50:33;96874.38;;;23.92;100.00
13867;BME280;7003;46.982;15.248;2023-06-10T09:53:00;96866.88;;;23.57;100.00
13867;BME280;7003;46.982;15.248;2023-06-10T09:55:33;96869.69;;;22.83;100.00
13867;BME280;7003;46.982;15.248;2023-06-10T09:58:01;96871.31;;;22.77;100.00
13867;BME280;7003;46.982;15.248;2023-06-10T10:00:32;96871.56;;;22.33;100.00
13867;BME280;7003;46.982;15.248;2023-06-10T10:03:01;96870.75;;;22.89;100.00
13867;BME280;7003;46.982;15.248;2023-06-10T10:05:29;96869.13;;;23.38;100.00
13867;BME280;7003;46.982;15.248;2023-06-10T10:07:57;96859.09;;;23.59;100.00
13867;BME280;7003;46.982;15.248;2023-06-10T10:10:24;96856.22;;;23.86;100.00
13867;BME280;7003;46.982;15.248;2023-06-10T10:12:54;96857.50;;;24.21;100.00
13867;BME280;7003;46.982;15.248;2023-06-10T10:15:29;96855.16;;;24.55;100.00
13867;BME280;7003;46.982;15.248;2023-06-10T10:18:06;96852.63;;;24.64;100.00
13867;BME280;7003;46.982;15.248;2023-06-10T10:20:41;96846.69;;;23.97;100.00
13867;BME280;7003;46.982;15.248;2023-06-10T10:23:14;96844.13;;;23.70;100.00
13867;BME280;7003;46.982;15.248;2023-06-10T10:25:50;96847.00;;;23.40;100.00
13867;BME280;7003;46.982;15.248;2023-06-10T10:28:21;96842.22;;;23.48;100.00
13867;BME280;7003;46.982;15.248;2023-06-10T10:30:54;96848.09;;;24.05;100.00
13867;BME280;7003;46.982;15.248;2023-06-10T10:33:33;96839.63;;;23.40;100.00
13867;BME280;7003;46.982;15.248;2023-06-10T10:36:06;96842.28;;;24.03;100.00
13867;BME280;7003;46.982;15.248;2023-06-10T10:38:37;96837.81;;;24.33;100.00
13867;BME280;7003;46.982;15.248;2023-06-10T10:41:05;96842.25;;;24.59;100.00
13867;BME280;7003;46.982;15.248;2023-06-10T10:43:33;96838.53;;;24.69;100.00
13867;BME280;7003;46.982;15.248;2023-06-10T10:46:08;96836.06;;;24.75;100.00
13867;BME280;7003;46.982;15.248;2023-06-10T10:48:38;96830.88;;;24.80;100.00
13867;BME280;7003;46.982;15.248;2023-06-10T10:51:07;96829.88;;;24.90;100.00
13867;BME280;7003;46.982;15.248;2023-06-10T10:53:34;96827.50;;;24.92;100.00
13867;BME280;7003;46.982;15.248;2023-06-10T10:56:06;96826.56;;;24.99;100.00
13867;BME280;7003;46.982;15.248;2023-06-10T10:58:34;96832.94;;;24.92;100.00
13867;BME280;7003;46.982;15.248;2023-06-10T11:01:12;96827.72;;;24.82;100.00
13867;BME280;7003;46.982;15.248;2023-06-10T11:03:44;96833.75;;;24.73;100.00
13867;BME280;7003;46.982;15.248;2023-06-10T11:06:13;96823.50;;;24.97;100.00
13867;BME280;7003;46.982;15.248;2023-06-10T11:08:49;96831.22;;;24.66;100.00
13867;BME280;7003;46.982;15.248;2023-06-10T11:11:19;96821.19;;;24.96;100.00
13867;BME280;7003;46.982;15.248;2023-06-10T11:14:07;96823.53;;;25.10;100.00
13867;BME280;7003;46.982;15.248;2023-06-10T11:16:40;96819.44;;;25.18;100.00
13867;BME280;7003;46.982;15.248;2023-06-10T11:19:08;96818.66;;;25.34;100.00
13867;BME280;7003;46.982;15.248;2023-06-10T11:21:57;96814.84;;;25.31;100.00
13867;BME280;7003;46.982;15.248;2023-06-10T11:24:28;96810.31;;;24.31;100.00
13867;BME280;7003;46.982;15.248;2023-06-10T11:27:17;96803.88;;;23.85;100.00
13867;BME280;7003;46.982;15.248;2023-06-10T11:30:18;96803.75;;;23.92;100.00
13867;BME280;7003;46.982;15.248;2023-06-10T11:32:50;96807.72;;;24.40;100.00
13867;BME280;7003;46.982;15.248;2023-06-10T11:35:23;96804.59;;;24.58;100.00
13867;BME280;7003;46.982;15.248;2023-06-10T11:37:54;96799.94;;;24.42;100.00
13867;BME280;7003;46.982;15.248;2023-06-10T11:40:24;96799.09;;;24.77;100.00
13867;BME280;7003;46.982;15.248;2023-06-10T11:42:53;96792.53;;;24.42;100.00
13867;BME280;7003;46.982;15.248;2023-06-10T11:45:21;96788.38;;;24.22;100.00
13867;BME280;7003;46.982;15.248;2023-06-10T11:47:59;96788.13;;;24.65;100.00
13867;BME280;7003;46.982;15.248;2023-06-10T11:50:31;96791.69;;;24.94;100.00
13867;BME280;7003;46.982;15.248;2023-06-10T11:52:59;96778.75;;;25.14;92.58
13867;BME280;7003;46.982;15.248;2023-06-10T11:55:41;96776.91;;;24.63;100.00
13867;BME280;7003;46.982;15.248;2023-06-10T11:58:12;96773.94;;;24.73;100.00
13867;BME280;7003;46.982;15.248;2023-06-10T12:00:44;96772.22;;;24.63;100.00
13867;BME280;7003;46.982;15.248;2023-06-10T12:03:14;96766.06;;;24.46;100.00
13867;BME280;7003;46.982;15.248;2023-06-10T12:05:56;96765.28;;;24.46;100.00
13867;BME280;7003;46.982;15.248;2023-06-10T12:08:24;96751.91;;;25.29;100.00
13867;BME280;7003;46.982;15.248;2023-06-10T12:10:53;96748.31;;;25.74;99.95
13867;BME280;7003;46.982;15.248;2023-06-10T12:13:21;96753.75;;;25.86;87.09
13867;BME280;7003;46.982;15.248;2023-06-10T12:15:52;96746.50;;;26.09;84.29
13867;BME280;7003;46.982;15.248;2023-06-10T12:18:22;96747.88;;;25.88;75.64
13867;BME280;7003;46.982;15.248;2023-06-10T12:20:52;96748.91;;;25.94;79.66
13867;BME280;7003;46.982;15.248;2023-06-10T12:23:20;96742.13;;;26.24;88.18
13867;BME280;7003;46.982;15.248;2023-06-10T12:25:50;96745.28;;;26.48;82.29
13867;BME280;7003;46.982;15.248;2023-06-10T12:28:21;96738.53;;;26.39;73.27
13867;BME280;7003;46.982;15.248;2023-06-10T12:30:51;96743.56;;;26.28;78.26
13867;BME280;7003;46.982;15.248;2023-06-10T12:33:21;96747.31;;;26.69;76.23
13867;BME280;7003;46.982;15.248;2023-06-10T12:35:51;96742.47;;;26.26;70.64
13867;BME280;7003;46.982;15.248;2023-06-10T12:38:23;96736.00;;;25.82;76.93
13867;BME280;7003;46.982;15.248;2023-06-10T12:41:01;96729.91;;;26.16;74.88
13867;BME280;7003;46.982;15.248;2023-06-10T12:43:30;96732.44;;;25.85;74.09
13867;BME280;7003;46.982;15.248;2023-06-10T12:46:08;96729.69;;;26.23;79.12
13867;BME280;7003;46.982;15.248;2023-06-10T12:48:49;96730.22;;;26.56;74.02
13867;BME280;7003;46.982;15.248;2023-06-10T12:51:18;96726.94;;;26.61;79.96
13867;BME280;7003;46.982;15.248;2023-06-10T12:53:46;96719.59;;;26.70;77.50
13867;BME280;7003;46.982;15.248;2023-06-10T12:56:13;96722.09;;;26.30;77.72
13867;BME280;7003;46.982;15.248;2023-06-10T12:58:41;96724.38;;;26.32;79.14
13867;BME280;7003;46.982;15.248;2023-06-10T13:01:10;96725.09;;;26.45;88.61
13867;BME280;7003;46.982;15.248;2023-06-10T13:03:39;96718.75;;;26.61;75.20
13867;BME280;7003;46.982;15.248;2023-06-10T13:06:07;96717.50;;;26.74;76.73